Time;durP1;ratioP1;P1;durP2;ratioP2;P2;SDS_P1;SDS_P2;PMS_P1;PMS_P2;Temp;Humidity;BMP_temperature;BMP_pressure;BME280_temperature;BME280_humidity;BME280_pressure;Samples;Min_cycle;Max_cycle;Signal;HPM_P1;HPM_P2
2021/04/23 00:02:05;;;;;;;6.15;3.28;;;7.60;46.70;;;;;;5050878;28;20108;-68
2021/04/23 00:04:31;;;;;;;9.50;3.15;;;7.60;46.90;;;;;;5040571;28;20086;-68
2021/04/23 00:06:58;;;;;;;6.35;3.28;;;7.50;46.90;;;;;;5047889;28;20465;-68
2021/04/23 00:09:28;;;;;;;8.10;3.42;;;7.50;47.10;;;;;;5050646;28;20116;-69
2021/04/23 00:11:58;;;;;;;10.90;3.92;;;7.50;47.20;;;;;;5047337;28;20482;-67
2021/04/23 00:14:28;;;;;;;9.85;4.00;;;7.40;47.30;;;;;;5039189;28;20032;-68
2021/04/23 00:16:54;;;;;;;10.27;3.38;;;7.40;47.30;;;;;;5050256;28;20025;-68
2021/04/23 00:19:22;;;;;;;9.90;3.58;;;7.30;47.20;;;;;;5050741;28;20028;-68
2021/04/23 00:21:48;;;;;;;9.77;3.78;;;7.20;47.50;;;;;;5040197;28;20378;-68
2021/04/23 00:24:14;;;;;;;6.60;3.33;;;7.10;47.50;;;;;;5050498;28;20488;-67
2021/04/23 00:26:41;;;;;;;7.55;3.08;;;7.10;47.80;;;;;;5050787;28;20044;-68
2021/04/23 00:29:07;;;;;;;7.70;3.63;;;7.10;48.00;;;;;;5047304;28;20025;-68
2021/04/23 00:31:33;;;;;;;7.97;3.75;;;7.10;47.90;;;;;;5048978;28;20031;-68
2021/04/23 00:33:59;;;;;;;6.97;3.55;;;7.00;47.90;;;;;;5049926;28;20183;-68
2021/04/23 00:36:25;;;;;;;8.18;3.60;;;7.00;48.00;;;;;;5050629;28;20032;-67
2021/04/23 00:38:51;;;;;;;8.20;3.97;;;7.00;48.00;;;;;;5047800;28;20388;-69
2021/04/23 00:41:21;;;;;;;7.10;3.38;;;7.00;48.10;;;;;;5049833;28;20507;-68
2021/04/23 00:43:58;;;;;;;7.57;3.30;;;6.90;48.10;;;;;;5050889;28;20558;-67
2021/04/23 00:46:29;;;;;;;8.38;3.60;;;6.90;48.30;;;;;;5050523;28;20119;-68
2021/04/23 00:48:56;;;;;;;7.28;3.58;;;6.90;48.40;;;;;;5050768;28;20488;-67
2021/04/23 00:51:28;;;;;;;6.93;3.67;;;6.90;48.20;;;;;;5050145;28;20036;-69
2021/04/23 00:53:54;;;;;;;6.47;2.88;;;6.90;48.40;;;;;;5049051;28;20601;-68
2021/04/23 00:56:23;;;;;;;7.90;3.97;;;6.80;48.20;;;;;;5048389;28;20462;-69
2021/04/23 00:58:49;;;;;;;7.55;3.15;;;6.80;48.30;;;;;;5049754;28;20047;-68
2021/04/23 01:01:25;;;;;;;6.40;3.50;;;6.80;48.30;;;;;;5045244;28;20032;-68
2021/04/23 01:03:53;;;;;;;7.70;3.72;;;6.70;48.60;;;;;;5046662;28;20032;-68
2021/04/23 01:06:22;;;;;;;10.05;4.03;;;6.70;48.50;;;;;;5050785;28;20036;-68
2021/04/23 01:08:48;;;;;;;9.35;3.70;;;6.60;48.60;;;;;;5047504;28;20316;-68
2021/04/23 01:11:16;;;;;;;8.65;4.18;;;6.60;48.70;;;;;;5043106;28;20033;-70
2021/04/23 01:13:42;;;;;;;9.32;4.18;;;6.50;48.80;;;;;;5042124;28;20029;-68
2021/04/23 01:16:12;;;;;;;9.00;4.00;;;6.50;48.80;;;;;;5041870;28;20021;-67
2021/04/23 01:18:39;;;;;;;6.65;3.83;;;6.50;48.90;;;;;;5044462;28;20353;-68
2021/04/23 01:21:15;;;;;;;8.18;3.80;;;6.40;48.90;;;;;;5048174;28;20038;-69
2021/04/23 01:23:43;;;;;;;8.25;3.63;;;6.40;49.00;;;;;;5049407;28;20021;-68
2021/04/23 01:26:10;;;;;;;8.38;3.75;;;6.30;49.00;;;;;;5047638;28;20044;-69
2021/04/23 01:28:38;;;;;;;10.35;3.90;;;6.30;49.10;;;;;;5038847;28;20063;-68
2021/04/23 01:31:06;;;;;;;9.52;4.20;;;6.30;49.20;;;;;;5042971;28;20029;-68
2021/04/23 01:33:33;;;;;;;12.65;4.03;;;6.20;49.20;;;;;;5050557;28;20108;-68
2021/04/23 01:35:59;;;;;;;8.73;3.65;;;6.20;49.20;;;;;;5044035;28;20029;-69
2021/04/23 01:38:25;;;;;;;8.55;3.28;;;6.20;49.30;;;;;;5049508;28;20028;-69
2021/04/23 01:40:51;;;;;;;9.73;4.10;;;6.10;49.30;;;;;;5044124;28;20485;-69
2021/04/23 01:43:18;;;;;;;12.90;4.25;;;6.10;49.50;;;;;;5035067;28;20033;-68
2021/04/23 01:45:44;;;;;;;6.07;3.55;;;6.10;49.60;;;;;;5048249;28;20123;-67
2021/04/23 01:48:11;;;;;;;11.50;4.13;;;6.10;49.60;;;;;;5046262;28;20489;-67
2021/04/23 01:50:38;;;;;;;15.75;4.13;;;6.00;49.50;;;;;;5048415;28;20021;-68
2021/04/23 01:53:03;;;;;;;11.73;4.22;;;6.00;49.70;;;;;;5046304;28;20017;-69
2021/04/23 01:55:29;;;;;;;8.23;3.28;;;6.10;49.70;;;;;;5046541;28;20520;-67
2021/04/23 01:57:55;;;;;;;8.38;4.00;;;6.00;49.60;;;;;;5047754;28;20025;-67
2021/04/23 02:00:26;;;;;;;9.02;3.72;;;6.00;49.70;;;;;;5045179;28;20147;-68
2021/04/23 02:02:52;;;;;;;8.63;3.45;;;5.90;49.80;;;;;;5049305;28;20103;-68
2021/04/23 02:05:20;;;;;;;5.28;2.90;;;5.90;49.90;;;;;;5048628;28;20066;-68
2021/04/23 02:07:46;;;;;;;7.20;2.60;;;5.80;49.90;;;;;;5049102;28;20382;-68
2021/04/23 02:10:18;;;;;;;6.30;3.17;;;5.80;49.90;;;;;;5048344;28;20059;-68
2021/04/23 02:12:43;;;;;;;6.85;3.08;;;5.70;50.00;;;;;;5048819;28;20036;-68
2021/04/23 02:15:13;;;;;;;9.38;3.15;;;5.70;50.00;;;;;;5039724;28;20397;-67
2021/04/23 02:17:40;;;;;;;6.60;3.15;;;5.70;50.20;;;;;;5046050;28;20025;-69
2021/04/23 02:20:09;;;;;;;5.78;3.10;;;5.60;50.30;;;;;;5048292;28;20029;-67
2021/04/23 02:22:35;;;;;;;8.75;3.50;;;5.60;50.30;;;;;;5048786;28;20025;-68
2021/04/23 02:25:01;;;;;;;8.57;3.47;;;5.60;50.30;;;;;;5044537;28;20500;-69
2021/04/23 02:27:27;;;;;;;5.78;3.10;;;5.60;50.30;;;;;;5032443;28;20035;-70
2021/04/23 02:29:52;;;;;;;7.78;3.20;;;5.60;50.30;;;;;;5048456;28;20033;-67
2021/04/23 02:32:18;;;;;;;9.48;3.20;;;5.50;50.40;;;;;;5048249;28;20128;-67
2021/04/23 02:34:44;;;;;;;8.43;3.65;;;5.50;50.50;;;;;;5048285;28;20148;-68
2021/04/23 02:37:10;;;;;;;6.32;3.58;;;5.40;50.50;;;;;;5049127;28;20102;-68
2021/04/23 02:39:35;;;;;;;9.98;3.45;;;5.40;50.50;;;;;;5045625;28;20170;-68
2021/04/23 02:42:01;;;;;;;6.72;3.10;;;5.40;51.10;;;;;;5043588;28;20045;-69
2021/04/23 02:44:27;;;;;;;8.68;3.22;;;5.40;50.70;;;;;;5047122;28;20090;-67
2021/04/23 02:46:54;;;;;;;8.65;3.30;;;5.40;50.70;;;;;;5043024;28;20052;-67
2021/04/23 02:49:20;;;;;;;8.77;3.63;;;5.30;50.70;;;;;;5042550;28;20033;-67
2021/04/23 02:51:47;;;;;;;7.88;3.50;;;5.30;50.80;;;;;;5048669;28;20500;-69
2021/04/23 02:54:14;;;;;;;6.18;3.50;;;5.30;50.90;;;;;;5048305;28;20064;-66
2021/04/23 02:56:40;;;;;;;7.22;3.42;;;5.20;50.90;;;;;;5047790;28;20021;-68
2021/04/23 02:59:08;;;;;;;6.63;3.47;;;5.20;51.00;;;;;;5045123;28;20200;-67
2021/04/23 03:01:44;;;;;;;9.25;3.20;;;5.20;51.10;;;;;;5048629;28;20029;-71
2021/04/23 03:04:10;;;;;;;7.63;3.30;;;5.10;51.20;;;;;;5033806;28;20106;-68
2021/04/23 03:06:36;;;;;;;11.05;4.07;;;5.00;51.10;;;;;;5048829;28;20025;-68
2021/04/23 03:09:06;;;;;;;9.50;3.92;;;5.00;51.30;;;;;;5045818;28;20033;-69
2021/04/23 03:11:33;;;;;;;12.05;4.13;;;5.00;51.40;;;;;;5047044;28;20029;-67
2021/04/23 03:14:00;;;;;;;5.90;3.72;;;4.90;51.40;;;;;;5046649;28;20090;-66
2021/04/23 03:16:27;;;;;;;8.68;3.63;;;4.80;51.50;;;;;;5047215;28;20028;-67
2021/04/23 03:18:53;;;;;;;7.32;3.92;;;4.80;51.60;;;;;;5048137;28;20353;-67
2021/04/23 03:21:22;;;;;;;8.60;4.05;;;4.70;51.70;;;;;;5048593;28;20039;-67
2021/04/23 03:23:47;;;;;;;10.38;3.50;;;4.70;51.80;;;;;;5049257;28;20029;-67
2021/04/23 03:26:15;;;;;;;8.02;4.13;;;4.70;51.90;;;;;;5048119;28;20519;-67
2021/04/23 03:28:42;;;;;;;7.75;3.70;;;4.70;52.00;;;;;;5041156;28;20055;-68
2021/04/23 03:31:10;;;;;;;5.07;3.33;;;4.70;52.00;;;;;;5048057;28;22792;-67
2021/04/23 03:33:36;;;;;;;9.38;3.88;;;4.70;52.00;;;;;;5051286;28;20040;-66
2021/04/23 03:36:04;;;;;;;10.00;4.18;;;4.60;52.00;;;;;;5051904;28;20150;-66
2021/04/23 03:38:32;;;;;;;8.20;3.80;;;4.60;52.00;;;;;;5051400;28;20036;-69
2021/04/23 03:41:06;;;;;;;10.85;4.30;;;4.60;52.00;;;;;;5047755;28;20021;-67
2021/04/23 03:43:32;;;;;;;6.82;4.10;;;4.60;52.20;;;;;;5050865;28;20036;-67
2021/04/23 03:45:58;;;;;;;8.63;4.13;;;4.60;52.10;;;;;;5045268;28;20070;-67
2021/04/23 03:48:24;;;;;;;10.25;3.92;;;4.60;52.20;;;;;;5032591;28;20030;-69
2021/04/23 03:50:49;;;;;;;10.38;3.40;;;4.50;52.20;;;;;;5046112;28;20551;-69
2021/04/23 03:53:17;;;;;;;6.15;3.53;;;4.50;52.30;;;;;;5051149;28;20025;-70
2021/04/23 03:55:50;;;;;;;11.20;4.65;;;4.50;52.30;;;;;;5045311;28;20033;-68
2021/04/23 03:58:18;;;;;;;9.98;4.78;;;4.40;52.40;;;;;;5051594;28;20520;-68
2021/04/23 04:01:05;;;;;;;12.73;5.70;;;4.40;52.40;;;;;;5041977;28;20033;-67
2021/04/23 04:03:31;;;;;;;9.35;4.65;;;4.40;52.60;;;;;;5037174;28;20033;-68
2021/04/23 04:05:57;;;;;;;8.80;4.15;;;4.30;52.50;;;;;;5050812;28;20405;-67
2021/04/23 04:08:23;;;;;;;9.35;3.97;;;4.30;52.60;;;;;;5046571;28;20048;-68
2021/04/23 04:10:50;;;;;;;9.60;4.00;;;4.30;52.70;;;;;;5050496;28;20025;-67
2021/04/23 04:13:16;;;;;;;11.80;4.07;;;4.30;52.70;;;;;;5046277;28;20024;-68
2021/04/23 04:15:42;;;;;;;11.32;4.30;;;4.30;52.70;;;;;;5050569;28;20060;-69
2021/04/23 04:18:10;;;;;;;10.40;4.15;;;4.30;52.70;;;;;;5050104;28;20469;-68
2021/04/23 04:20:38;;;;;;;10.93;4.32;;;4.30;52.80;;;;;;5044700;28;20316;-67
2021/04/23 04:23:05;;;;;;;11.38;4.07;;;4.30;52.90;;;;;;5050791;28;20470;-68
2021/04/23 04:25:35;;;;;;;9.85;3.95;;;4.20;53.00;;;;;;5048314;28;20059;-68
2021/04/23 04:28:01;;;;;;;10.27;3.80;;;4.20;53.10;;;;;;5046566;28;20087;-68
2021/04/23 04:30:28;;;;;;;10.43;3.65;;;4.20;53.20;;;;;;5043271;28;20029;-68
2021/04/23 04:32:56;;;;;;;9.48;4.00;;;4.10;53.20;;;;;;5051259;28;20029;-68
2021/04/23 04:35:22;;;;;;;7.70;4.03;;;4.10;53.20;;;;;;5049363;28;20029;-68
2021/04/23 04:37:48;;;;;;;5.82;4.03;;;4.10;53.30;;;;;;5047042;28;20112;-68
2021/04/23 04:40:14;;;;;;;10.88;4.25;;;4.00;53.40;;;;;;5050092;28;20105;-69
2021/04/23 04:42:41;;;;;;;9.05;4.18;;;4.00;53.50;;;;;;5047954;28;20040;-68
2021/04/23 04:45:09;;;;;;;8.80;3.95;;;4.00;53.60;;;;;;5049577;28;20536;-68
2021/04/23 04:47:35;;;;;;;8.63;3.80;;;4.00;54.20;;;;;;5049452;28;20025;-67
2021/04/23 04:50:05;;;;;;;12.30;4.20;;;4.00;53.60;;;;;;5043636;28;20124;-69
2021/04/23 04:52:30;;;;;;;10.35;4.05;;;4.00;53.70;;;;;;5047317;28;20434;-67
2021/04/23 04:54:56;;;;;;;7.90;4.00;;;3.90;53.70;;;;;;5042923;28;20075;-67
2021/04/23 04:57:22;;;;;;;7.70;3.38;;;4.00;53.80;;;;;;5050866;28;20025;-68
2021/04/23 04:59:49;;;;;;;8.20;3.72;;;4.10;53.70;;;;;;5051550;28;20112;-68
2021/04/23 05:02:15;;;;;;;8.02;4.15;;;4.20;53.80;;;;;;5050360;28;20477;-68
2021/04/23 05:04:41;;;;;;;12.27;4.40;;;4.30;53.80;;;;;;5049141;28;20057;-68
2021/04/23 05:07:07;;;;;;;10.60;4.05;;;4.30;53.70;;;;;;5050492;28;20522;-67
2021/04/23 05:09:34;;;;;;;7.25;3.60;;;4.50;53.60;;;;;;5051170;28;20124;-67
2021/04/23 05:12:00;;;;;;;9.65;3.72;;;4.60;53.60;;;;;;5050666;28;20025;-70
2021/04/23 05:14:26;;;;;;;8.60;3.85;;;4.70;53.50;;;;;;5049971;28;20078;-69
2021/04/23 05:16:51;;;;;;;10.95;3.80;;;4.70;53.50;;;;;;5050448;28;20033;-67
2021/04/23 05:19:18;;;;;;;9.35;3.47;;;4.80;53.60;;;;;;5043330;28;20021;-69
2021/04/23 05:21:44;;;;;;;6.75;3.55;;;4.90;53.50;;;;;;5049974;28;20457;-69
2021/04/23 05:24:10;;;;;;;9.80;3.30;;;5.10;53.50;;;;;;5050379;28;20064;-68
2021/04/23 05:26:36;;;;;;;9.10;3.38;;;5.20;53.80;;;;;;5042072;28;20025;-67
2021/04/23 05:29:04;;;;;;;8.20;2.92;;;5.20;53.20;;;;;;5048630;28;20028;-67
2021/04/23 05:31:30;;;;;;;6.70;3.40;;;5.30;53.10;;;;;;5042888;28;20489;-68
2021/04/23 05:33:56;;;;;;;8.98;3.22;;;5.40;53.20;;;;;;5047598;28;20033;-71
2021/04/23 05:36:22;;;;;;;6.18;3.50;;;5.40;53.10;;;;;;5040022;28;20079;-67
2021/04/23 05:38:48;;;;;;;7.72;3.67;;;5.50;53.10;;;;;;5048747;28;20025;-66
2021/04/23 05:41:13;;;;;;;10.73;4.07;;;5.60;53.20;;;;;;5050548;28;20031;-66
2021/04/23 05:43:42;;;;;;;10.50;4.30;;;5.70;53.20;;;;;;5052169;28;20021;-67
2021/04/23 05:46:08;;;;;;;12.63;4.75;;;5.80;53.10;;;;;;5050642;28;20029;-68
2021/04/23 05:48:33;;;;;;;9.95;4.20;;;5.90;53.10;;;;;;5049740;28;20032;-68
2021/04/23 05:50:59;;;;;;;8.60;4.20;;;6.00;53.30;;;;;;5046810;28;20028;-68
2021/04/23 05:53:25;;;;;;;8.23;4.30;;;6.10;53.20;;;;;;5051886;28;20053;-70
2021/04/23 05:55:50;;;;;;;9.48;4.15;;;6.10;53.20;;;;;;5049212;28;20021;-70
2021/04/23 05:58:16;;;;;;;10.35;4.40;;;6.20;53.40;;;;;;5050613;28;20029;-70
2021/04/23 06:00:43;;;;;;;12.77;4.15;;;6.40;53.40;;;;;;5050156;28;20075;-70
2021/04/23 06:03:09;;;;;;;11.02;4.63;;;6.50;53.20;;;;;;5051032;28;20542;-70
2021/04/23 06:05:36;;;;;;;9.18;4.13;;;6.60;52.90;;;;;;5052017;28;20025;-67
2021/04/23 06:08:08;;;;;;;8.40;4.13;;;6.70;52.80;;;;;;5050247;28;20025;-70
2021/04/23 06:10:34;;;;;;;9.93;3.78;;;6.80;53.00;;;;;;5050798;28;20124;-70
2021/04/23 06:13:01;;;;;;;11.10;3.85;;;6.90;52.80;;;;;;5050104;28;20112;-69
2021/04/23 06:15:27;;;;;;;7.63;3.58;;;6.90;52.90;;;;;;5049736;28;20032;-67
2021/04/23 06:17:54;;;;;;;8.27;4.13;;;6.90;53.10;;;;;;5047246;28;20489;-69
2021/04/23 06:20:24;;;;;;;11.23;3.90;;;6.90;53.20;;;;;;5050255;28;20029;-69
2021/04/23 06:22:50;;;;;;;11.85;4.28;;;6.90;53.40;;;;;;5050487;28;20033;-68
2021/04/23 06:25:18;;;;;;;11.52;3.92;;;6.90;53.60;;;;;;5046851;28;20029;-70
2021/04/23 06:27:45;;;;;;;8.43;4.00;;;7.00;53.70;;;;;;5048209;28;20123;-69
2021/04/23 06:30:17;;;;;;;6.93;3.80;;;7.10;53.60;;;;;;5049772;28;20072;-70
2021/04/23 06:32:45;;;;;;;9.18;3.70;;;7.30;53.50;;;;;;5048055;28;20025;-70
2021/04/23 06:35:17;;;;;;;9.88;3.55;;;7.50;53.20;;;;;;5049318;28;20028;-70
2021/04/23 06:37:43;;;;;;;7.65;3.80;;;7.70;53.20;;;;;;5047253;28;20033;-71
2021/04/23 06:40:12;;;;;;;13.02;4.43;;;7.90;52.80;;;;;;5048571;28;20054;-70
2021/04/23 06:42:38;;;;;;;9.93;4.07;;;8.10;52.90;;;;;;5049728;28;20362;-69
2021/04/23 06:45:14;;;;;;;9.30;4.10;;;8.30;52.80;;;;;;5049851;28;20017;-68
2021/04/23 06:47:40;;;;;;;10.52;3.92;;;8.60;52.70;;;;;;5041379;28;20047;-69
2021/04/23 06:50:08;;;;;;;10.27;3.97;;;8.80;52.40;;;;;;5030285;28;20033;-68
2021/04/23 06:52:34;;;;;;;14.15;4.18;;;9.10;52.40;;;;;;5047586;28;20025;-67
2021/04/23 06:55:00;;;;;;;8.90;3.80;;;9.40;52.00;;;;;;5042996;28;20483;-67
2021/04/23 06:57:26;;;;;;;9.27;3.42;;;9.60;51.70;;;;;;5043115;28;20124;-68
2021/04/23 06:59:52;;;;;;;10.90;4.13;;;9.90;51.50;;;;;;5045365;28;20059;-68
2021/04/23 07:02:18;;;;;;;8.27;3.60;;;10.30;51.30;;;;;;5047799;28;20025;-68
2021/04/23 07:04:44;;;;;;;11.02;3.85;;;10.60;50.90;;;;;;5041168;28;20028;-70
2021/04/23 07:07:09;;;;;;;8.95;3.97;;;10.90;50.70;;;;;;5051011;28;20098;-68
2021/04/23 07:09:35;;;;;;;9.02;3.95;;;11.20;50.40;;;;;;5046498;28;20116;-71
2021/04/23 07:12:02;;;;;;;9.07;3.58;;;11.50;50.00;;;;;;5036070;28;20029;-68
2021/04/23 07:14:27;;;;;;;11.63;4.00;;;11.70;49.70;;;;;;5033558;28;20026;-71
2021/04/23 07:16:53;;;;;;;11.57;3.50;;;12.00;49.50;;;;;;5048259;28;20044;-68
2021/04/23 07:19:19;;;;;;;9.52;3.58;;;12.30;49.30;;;;;;5054864;28;20028;-69
2021/04/23 07:21:45;;;;;;;8.13;3.53;;;12.60;49.00;;;;;;5053680;28;20154;-70
2021/04/23 07:24:11;;;;;;;9.35;3.63;;;12.90;48.90;;;;;;5049788;28;20025;-69
2021/04/23 07:26:36;;;;;;;13.40;3.63;;;13.00;48.40;;;;;;5046058;28;20032;-70
2021/04/23 07:29:02;;;;;;;9.88;3.97;;;13.20;48.40;;;;;;5053926;28;20134;-68
2021/04/23 07:31:28;;;;;;;9.00;4.05;;;13.40;48.20;;;;;;5053276;28;20374;-70
2021/04/23 07:33:54;;;;;;;13.20;3.40;;;13.70;47.90;;;;;;5053417;28;20113;-68
2021/04/23 07:36:19;;;;;;;14.32;3.88;;;13.90;47.80;;;;;;5054041;28;20028;-68
2021/04/23 07:38:45;;;;;;;12.52;4.00;;;14.10;47.60;;;;;;5053918;28;20027;-69
2021/04/23 07:41:12;;;;;;;14.40;4.18;;;14.40;47.30;;;;;;5053931;28;20035;-69
2021/04/23 07:43:38;;;;;;;14.00;4.05;;;14.70;46.90;;;;;;5053908;28;20024;-69
2021/04/23 07:46:04;;;;;;;14.27;4.00;;;15.00;46.30;;;;;;5053650;28;20083;-68
2021/04/23 07:48:30;;;;;;;12.18;4.30;;;15.10;46.30;;;;;;5052996;28;20029;-68
2021/04/23 07:50:56;;;;;;;13.60;4.38;;;15.40;46.10;;;;;;5071100;22;20083;-89
2021/04/23 07:53:22;;;;;;;12.88;3.97;;;15.60;45.50;;;;;;5045441;28;20029;-88
2021/04/23 07:55:48;;;;;;;12.43;3.75;;;15.90;45.10;;;;;;5050384;28;20103;-88
2021/04/23 07:58:14;;;;;;;11.88;3.65;;;16.10;44.60;;;;;;5042032;28;20051;-89
2021/04/23 08:00:40;;;;;;;10.30;3.38;;;16.30;44.20;;;;;;5051240;28;20032;-89
2021/04/23 08:03:05;;;;;;;10.75;3.38;;;16.50;43.80;;;;;;5054918;28;20485;-89
2021/04/23 08:05:31;;;;;;;11.70;3.80;;;16.60;43.50;;;;;;5051376;28;20032;-89
2021/04/23 08:07:57;;;;;;;9.48;3.72;;;16.90;43.40;;;;;;5047145;28;20036;-88
2021/04/23 08:10:23;;;;;;;11.50;3.42;;;17.00;43.10;;;;;;5038460;28;20037;-89
2021/04/23 08:12:52;;;;;;;9.85;3.55;;;17.30;43.00;;;;;;5049489;28;20397;-89
2021/04/23 08:15:19;;;;;;;12.10;3.90;;;17.50;42.60;;;;;;5049901;28;20021;-89
2021/04/23 08:17:45;;;;;;;13.35;3.72;;;17.80;42.50;;;;;;5038768;28;20022;-89
2021/04/23 08:20:11;;;;;;;17.77;4.22;;;18.10;41.80;;;;;;5046035;28;20020;-89
2021/04/23 08:22:37;;;;;;;17.45;4.32;;;18.30;41.70;;;;;;5044103;28;20114;-89
2021/04/23 08:25:05;;;;;;;9.35;3.50;;;18.50;41.20;;;;;;5051274;28;20029;-88
2021/04/23 08:27:30;;;;;;;12.15;3.90;;;18.70;40.90;;;;;;5041265;28;20032;-88
2021/04/23 08:29:56;;;;;;;8.20;3.65;;;18.90;40.50;;;;;;5048432;28;20029;-88
2021/04/23 08:32:22;;;;;;;11.00;3.60;;;18.90;39.90;;;;;;5053868;28;20404;-89
2021/04/23 08:34:47;;;;;;;13.65;4.22;;;19.00;39.40;;;;;;5052588;28;20128;-89
2021/04/23 08:37:13;;;;;;;14.02;4.22;;;18.70;37.80;;;;;;5051483;28;20021;-88
2021/04/23 08:39:39;;;;;;;15.60;4.40;;;18.30;37.60;;;;;;5052572;28;20432;-89
2021/04/23 08:42:06;;;;;;;14.57;4.13;;;18.30;39.40;;;;;;5053075;28;20036;-88
2021/04/23 08:44:33;;;;;;;10.98;4.35;;;18.50;39.10;;;;;;5047662;28;20052;-89
2021/04/23 08:46:59;;;;;;;10.77;4.13;;;18.90;38.90;;;;;;5053035;28;20037;-89
2021/04/23 08:49:25;;;;;;;13.32;4.72;;;19.40;38.70;;;;;;5054125;28;21541;-89
2021/04/23 08:51:51;;;;;;;16.90;4.30;;;19.80;38.00;;;;;;5052377;28;20163;-88
2021/04/23 08:54:24;;;;;;;10.45;4.57;;;20.20;37.60;;;;;;5050463;28;20029;-89
2021/04/23 08:56:50;;;;;;;11.27;4.03;;;20.80;36.80;;;;;;5049719;28;20093;-88
2021/04/23 08:59:15;;;;;;;12.15;4.45;;;21.30;36.20;;;;;;5039995;28;20084;-89
2021/04/23 09:01:41;;;;;;;9.45;3.80;;;21.90;35.50;;;;;;5047561;28;20489;-89
2021/04/23 09:04:07;;;;;;;8.80;3.95;;;22.60;34.40;;;;;;5049919;28;20029;-88
2021/04/23 09:06:32;;;;;;;10.02;4.10;;;23.40;33.20;;;;;;5051454;28;20029;-89
2021/04/23 09:09:01;;;;;;;8.70;4.07;;;24.20;32.20;;;;;;5052262;28;20082;-88
2021/04/23 09:11:30;;;;;;;7.22;3.63;;;24.80;30.60;;;;;;5050948;28;20032;-88
2021/04/23 09:14:08;;;;;;;8.95;4.18;;;25.50;30.00;;;;;;5051182;28;20029;-88
2021/04/23 09:16:57;;;;;;;11.23;3.58;;;26.20;29.20;;;;;;5048373;28;20565;-89
2021/04/23 09:19:24;;;;;;;8.65;3.50;;;27.00;29.10;;;;;;5036299;28;20115;-88
2021/04/23 09:21:51;;;;;;;10.18;4.50;;;27.60;28.50;;;;;;5052143;28;20447;-89
2021/04/23 09:24:22;;;;;;;9.25;3.65;;;28.00;28.00;;;;;;5052174;28;20051;-89
2021/04/23 09:26:49;;;;;;;8.75;4.40;;;28.50;27.60;;;;;;5049699;28;20079;-88
2021/04/23 09:29:33;;;;;;;11.50;4.57;;;28.90;27.60;;;;;;5050509;28;20060;-89
2021/04/23 09:32:15;;;;;;;8.18;3.80;;;29.20;27.00;;;;;;5052006;28;20485;-88
2021/04/23 09:34:48;;;;;;;;;;;29.20;27.00;;;;;;5049254;28;20116;-89
2021/04/23 09:37:14;;;;;;;11.85;4.15;;;29.40;28.10;;;;;;5042815;28;19943;-91
2021/04/23 09:39:40;;;;;;;10.88;4.35;;;29.10;26.40;;;;;;5044345;28;20033;-90
2021/04/23 09:42:11;;;;;;;12.18;6.00;;;28.50;26.40;;;;;;5045648;28;20570;-90
2021/04/23 09:44:41;;;;;;;7.20;4.20;;;27.90;26.50;;;;;;5040494;28;20082;-90
2021/04/23 09:47:24;;;;;;;10.48;4.10;;;27.30;27.20;;;;;;5053156;28;20024;-89
2021/04/23 09:49:55;;;;;;;11.07;4.07;;;26.80;27.50;;;;;;5052861;28;20048;-89
2021/04/23 09:52:22;;;;;;;11.38;4.57;;;26.20;27.90;;;;;;5044787;28;20025;-88
2021/04/23 09:54:51;;;;;;;9.15;3.92;;;25.70;28.30;;;;;;5047038;28;20036;-89
2021/04/23 09:57:20;;;;;;;9.43;3.92;;;25.20;28.50;;;;;;5048132;28;20020;-89
2021/04/23 09:59:55;;;;;;;5.82;3.95;;;24.70;29.00;;;;;;5040702;28;20147;-89
2021/04/23 10:02:23;;;;;;;8.15;4.10;;;24.20;29.40;;;;;;5039142;28;20036;-88
2021/04/23 10:04:49;;;;;;;10.95;4.05;;;23.70;29.70;;;;;;5046269;28;20074;-87
2021/04/23 10:07:20;;;;;;;9.23;4.28;;;23.30;30.00;;;;;;5048088;28;20351;-90
2021/04/23 10:10:16;;;;;;;13.20;4.00;;;23.10;30.10;;;;;;5042928;28;20036;-89
2021/04/23 10:12:44;;;;;;;13.85;4.38;;;22.90;30.60;;;;;;5032218;28;20063;-87
2021/04/23 10:15:29;;;;;;;8.73;3.83;;;22.60;30.70;;;;;;5045608;28;20053;-90
2021/04/23 10:18:03;;;;;;;27.63;4.50;;;22.50;30.80;;;;;;5042622;28;20065;-88
2021/04/23 10:20:47;;;;;;;14.98;7.22;;;22.20;31.20;;;;;;5042114;28;20029;-88
2021/04/23 10:23:15;;;;;;;11.10;4.28;;;22.10;31.50;;;;;;5030880;28;20025;-88
2021/04/23 10:25:42;;;;;;;9.18;4.35;;;22.10;31.40;;;;;;5040340;28;20025;-88
2021/04/23 10:28:10;;;;;;;10.18;4.38;;;22.00;31.30;;;;;;5041227;28;20028;-88
2021/04/23 10:30:39;;;;;;;10.90;4.47;;;21.70;30.40;;;;;;5049713;28;20124;-87
2021/04/23 10:33:10;;;;;;;9.90;4.45;;;21.30;31.00;;;;;;5048127;28;20100;-87
2021/04/23 10:35:38;;;;;;;7.25;4.10;;;21.20;31.60;;;;;;5048662;28;20063;-88
2021/04/23 10:38:17;;;;;;;12.30;4.18;;;21.30;31.60;;;;;;5044643;28;20040;-87
2021/04/23 10:40:55;;;;;;;11.15;4.28;;;21.30;31.50;;;;;;5040443;28;20036;-89
2021/04/23 10:43:21;;;;;;;11.40;4.47;;;21.30;32.60;;;;;;5045893;28;20508;-88
2021/04/23 10:46:05;;;;;;;10.68;4.10;;;21.30;31.70;;;;;;5041451;28;20405;-87
2021/04/23 10:48:34;;;;;;;11.13;4.60;;;21.30;31.70;;;;;;5043705;28;20025;-88
2021/04/23 10:51:09;;;;;;;11.57;3.90;;;21.10;31.60;;;;;;5049557;28;20115;-87
2021/04/23 10:53:42;;;;;;;7.82;4.20;;;21.00;31.70;;;;;;5048579;28;20024;-89
2021/04/23 10:56:17;;;;;;;9.50;3.72;;;20.90;31.80;;;;;;5049271;28;20430;-92
2021/04/23 10:58:43;;;;;;;9.98;4.10;;;20.70;31.90;;;;;;5071830;28;20029;-89
2021/04/23 11:01:15;;;;;;;8.35;3.80;;;20.50;31.90;;;;;;5057235;28;20508;-89
2021/04/23 11:03:42;;;;;;;9.57;4.30;;;20.40;31.90;;;;;;5051433;28;20024;-89
2021/04/23 11:06:14;;;;;;;9.55;4.15;;;20.20;32.00;;;;;;5053182;28;20029;-90
2021/04/23 11:08:58;;;;;;;10.68;4.32;;;20.10;31.70;;;;;;5053184;28;20028;-89
2021/04/23 11:11:24;;;;;;;12.13;4.88;;;19.90;30.80;;;;;;5059185;28;20030;-89
2021/04/23 11:13:53;;;;;;;8.23;4.30;;;19.60;31.20;;;;;;5057266;28;20059;-90
2021/04/23 11:18:54;;;;;;;9.63;4.20;;;19.50;31.30;;;;;;5052139;28;20025;-89
2021/04/23 11:21:34;;;;;;;10.50;4.05;;;19.40;31.10;;;;;;5050798;28;20033;-89
2021/04/23 11:24:18;;;;;;;11.15;4.32;;;19.40;31.20;;;;;;5050134;28;20111;-89
2021/04/23 11:29:40;;;;;;;9.40;3.90;;;19.40;31.70;;;;;;5050473;28;20068;-91
2021/04/23 11:32:10;;;;;;;9.55;3.90;;;19.50;31.20;;;;;;5052748;28;20033;-89
2021/04/23 11:34:57;;;;;;;11.27;4.00;;;19.60;31.40;;;;;;5051198;28;20447;-90
2021/04/23 11:37:26;;;;;;;9.02;3.60;;;19.70;31.40;;;;;;5051441;28;20025;-90
2021/04/23 11:39:58;;;;;;;12.30;7.28;;;19.90;31.70;;;;;;5049116;28;20041;-91
2021/04/23 11:42:34;;;;;;;6.97;3.13;;;20.00;32.00;;;;;;5048531;28;20083;-90
2021/04/23 11:45:04;;;;;;;9.15;3.45;;;20.10;31.30;;;;;;5051970;28;20173;-91
2021/04/23 11:47:41;;;;;;;8.05;3.75;;;20.30;31.30;;;;;;5052190;28;20044;-91
2021/04/23 11:50:48;;;;;;;9.27;3.60;;;20.50;31.00;;;;;;5052597;28;20398;-91
2021/04/23 11:53:19;;;;;;;9.07;2.80;;;20.70;31.00;;;;;;5038338;28;20109;-90
2021/04/23 11:55:46;;;;;;;18.40;3.60;;;20.90;31.10;;;;;;5072347;28;20025;-91
2021/04/23 11:58:21;;;;;;;9.75;3.80;;;21.10;31.00;;;;;;5066916;28;20041;-92
2021/04/23 12:00:56;;;;;;;7.88;3.45;;;21.20;30.70;;;;;;5070096;28;20029;-91
2021/04/23 12:03:28;;;;;;;9.93;3.38;;;21.30;30.00;;;;;;5071769;28;20033;-92
2021/04/23 12:05:58;;;;;;;9.60;3.60;;;21.20;30.30;;;;;;5070500;28;20032;-90
2021/04/23 12:08:30;;;;;;;7.40;3.22;;;21.20;30.00;;;;;;5057891;28;20597;-90
2021/04/23 12:11:07;;;;;;;11.80;3.95;;;21.20;30.20;;;;;;5077892;28;20053;-91
2021/04/23 12:13:39;;;;;;;12.77;4.03;;;21.20;29.60;;;;;;5042494;28;20112;-89
2021/04/23 12:16:07;;;;;;;11.65;4.20;;;21.00;29.20;;;;;;5047161;28;20033;-89
2021/04/23 12:18:41;;;;;;;12.00;3.50;;;21.00;29.00;;;;;;5049761;28;20430;-89
2021/04/23 12:21:10;;;;;;;8.75;3.53;;;20.80;29.10;;;;;;5052097;28;20047;-89
2021/04/23 12:23:35;;;;;;;6.90;3.30;;;20.80;29.50;;;;;;5053580;28;20017;-89
2021/04/23 12:26:09;;;;;;;4.85;2.88;;;20.80;29.90;;;;;;5047744;28;20295;-89
2021/04/23 12:28:38;;;;;;;8.60;3.10;;;21.10;29.90;;;;;;5049455;28;20055;-92
2021/04/23 12:31:32;;;;;;;9.27;3.03;;;21.30;29.90;;;;;;5051582;28;20056;-90
2021/04/23 12:34:04;;;;;;;11.73;3.40;;;21.40;30.00;;;;;;5048440;28;20064;-89
2021/04/23 12:36:32;;;;;;;5.38;3.25;;;21.50;29.70;;;;;;5053001;28;20053;-90
2021/04/23 12:39:01;;;;;;;6.97;3.00;;;21.50;29.40;;;;;;5053225;28;20025;-90
2021/04/23 12:41:33;;;;;;;5.20;2.78;;;21.50;29.30;;;;;;5050374;28;20029;-89
2021/04/23 12:44:09;;;;;;;8.73;2.90;;;21.50;29.10;;;;;;5041199;28;20037;-89
2021/04/23 12:46:47;;;;;;;5.85;2.70;;;21.50;29.40;;;;;;5035172;28;20048;-89
2021/04/23 12:49:19;;;;;;;10.80;3.03;;;21.70;29.50;;;;;;5038493;28;20501;-90
2021/04/23 12:52:07;;;;;;;7.38;3.15;;;21.90;29.40;;;;;;5053497;28;20033;-89
2021/04/23 12:54:35;;;;;;;5.28;2.97;;;22.00;29.20;;;;;;5047214;28;20033;-87
2021/04/23 12:57:07;;;;;;;9.00;3.67;;;22.10;28.50;;;;;;5047118;28;20032;-90
2021/04/23 12:59:37;;;;;;;5.22;3.00;;;22.10;27.70;;;;;;5049709;28;20104;-89
2021/04/23 13:02:03;;;;;;;9.63;3.00;;;22.00;28.00;;;;;;5052839;28;20037;-89